createdAt,value
2023-03-31T00:00:33.158Z,986.46
2023-03-31T00:01:33.178Z,986.36
2023-03-31T00:02:33.243Z,986.42
2023-03-31T00:03:33.214Z,986.35
2023-03-31T00:04:33.175Z,986.35
2023-03-31T00:05:33.159Z,986.25
2023-03-31T00:06:33.375Z,986.29
2023-03-31T00:07:33.098Z,986.32
2023-03-31T00:08:33.089Z,986.31
2023-03-31T00:09:33.105Z,986.23
2023-03-31T00:10:33.085Z,986.33
2023-03-31T00:11:33.098Z,986.27
2023-03-31T00:12:33.058Z,986.24
2023-03-31T00:13:33.077Z,986.19
2023-03-31T00:14:33.053Z,986.18
2023-03-31T00:15:33.048Z,986.19
2023-03-31T00:16:33.138Z,986.27
2023-03-31T00:17:33.131Z,986.18
2023-03-31T00:18:33.023Z,986.20
2023-03-31T00:19:33.024Z,986.16
2023-03-31T00:20:33.052Z,986.09
2023-03-31T00:21:33.032Z,986.08
2023-03-31T00:22:33.016Z,986.15
2023-03-31T00:23:32.992Z,986.12
2023-03-31T00:24:33.112Z,986.10
2023-03-31T00:25:33.032Z,986.13
2023-03-31T00:26:32.955Z,986.16
2023-03-31T00:27:32.993Z,986.12
2023-03-31T00:28:32.969Z,986.14
2023-03-31T00:29:32.940Z,986.05
2023-03-31T00:30:32.933Z,986.02
2023-03-31T00:31:32.954Z,986.03
2023-03-31T00:32:33.000Z,986.01
2023-03-31T00:33:32.920Z,985.99
2023-03-31T00:34:32.892Z,985.97
2023-03-31T00:35:32.901Z,985.95
2023-03-31T00:36:32.892Z,985.97
2023-03-31T00:37:32.904Z,985.92
2023-03-31T00:38:32.870Z,985.98
2023-03-31T00:39:32.873Z,985.92
2023-03-31T00:40:32.845Z,985.97
2023-03-31T00:41:32.855Z,985.95
2023-03-31T00:42:32.863Z,985.88
2023-03-31T00:43:32.835Z,985.89
2023-03-31T00:44:32.814Z,985.84
2023-03-31T00:45:32.833Z,985.85
2023-03-31T00:46:32.814Z,985.84
2023-03-31T00:47:32.869Z,985.82
2023-03-31T00:48:32.779Z,985.81
2023-03-31T00:49:32.807Z,985.84
2023-03-31T00:50:32.786Z,985.89
2023-03-31T00:51:32.749Z,985.79
2023-03-31T00:52:32.769Z,985.78
2023-03-31T00:53:32.754Z,985.80
2023-03-31T00:54:32.735Z,985.79
2023-03-31T00:55:32.775Z,985.82
2023-03-31T00:56:32.737Z,985.79
2023-03-31T00:57:32.753Z,985.75
2023-03-31T00:58:32.699Z,985.79
2023-03-31T00:59:32.755Z,985.74
2023-03-31T01:00:32.694Z,985.71
2023-03-31T01:01:32.697Z,985.72
2023-03-31T01:02:32.804Z,985.73
2023-03-31T01:03:32.683Z,985.67
2023-03-31T01:04:32.656Z,985.66
2023-03-31T01:05:32.658Z,985.59
2023-03-31T01:06:32.648Z,985.66
2023-03-31T01:07:32.675Z,985.60
2023-03-31T01:08:32.618Z,985.61
2023-03-31T01:09:32.611Z,985.61
2023-03-31T01:10:33.610Z,985.56
2023-03-31T01:11:32.637Z,985.58
2023-03-31T01:12:32.680Z,985.58
2023-03-31T01:13:33.581Z,985.56
2023-03-31T01:14:32.598Z,985.53
2023-03-31T01:15:32.574Z,985.47
2023-03-31T01:16:32.575Z,985.45
2023-03-31T01:17:32.733Z,985.49
2023-03-31T01:18:32.592Z,985.48
2023-03-31T01:19:32.536Z,985.52
2023-03-31T01:20:32.539Z,985.48
2023-03-31T01:21:32.534Z,985.50
2023-03-31T01:22:32.557Z,985.46
2023-03-31T01:23:32.579Z,985.44
2023-03-31T01:24:32.538Z,985.44
2023-03-31T01:25:32.501Z,985.40
2023-03-31T01:26:32.484Z,985.40
2023-03-31T01:27:32.509Z,985.33
2023-03-31T01:28:32.475Z,985.25
2023-03-31T01:29:32.466Z,985.29
2023-03-31T01:30:32.457Z,985.31
2023-03-31T01:31:32.511Z,985.26
2023-03-31T01:32:32.537Z,985.23
2023-03-31T01:33:32.427Z,985.21
2023-03-31T01:34:32.440Z,985.19
2023-03-31T01:35:32.434Z,985.17
2023-03-31T01:36:32.409Z,985.20
2023-03-31T01:37:32.490Z,985.11
2023-03-31T01:38:32.395Z,985.14
2023-03-31T01:39:32.384Z,985.14
2023-03-31T01:40:32.381Z,985.11
2023-03-31T01:41:32.378Z,985.00
2023-03-31T01:42:32.402Z,985.07
2023-03-31T01:43:32.356Z,985.03
2023-03-31T01:44:32.344Z,985.01
2023-03-31T01:45:32.371Z,985.03
2023-03-31T01:46:32.373Z,984.88
2023-03-31T01:47:32.396Z,984.96
2023-03-31T01:48:32.321Z,984.90
2023-03-31T01:49:32.310Z,984.88
2023-03-31T01:50:32.312Z,984.84
2023-03-31T01:51:32.296Z,984.84
2023-03-31T01:52:32.312Z,984.85
2023-03-31T01:53:32.294Z,984.72
2023-03-31T01:54:32.266Z,984.74
2023-03-31T01:55:32.273Z,984.69
2023-03-31T01:56:32.251Z,984.65
2023-03-31T01:57:32.246Z,984.64
2023-03-31T01:58:32.318Z,984.70
2023-03-31T01:59:32.237Z,984.69
2023-03-31T02:00:32.229Z,984.60
2023-03-31T02:01:32.295Z,984.65
2023-03-31T02:02:32.289Z,984.61
2023-03-31T02:03:32.309Z,984.56
2023-03-31T02:04:32.213Z,984.61
2023-03-31T02:05:32.213Z,984.63
2023-03-31T02:06:32.205Z,984.59
2023-03-31T02:07:32.173Z,984.56
2023-03-31T02:08:32.204Z,984.55
2023-03-31T02:09:32.201Z,984.58
2023-03-31T02:10:32.169Z,984.53
2023-03-31T02:11:32.142Z,984.54
2023-03-31T02:12:32.137Z,984.52
2023-03-31T02:13:32.156Z,984.44
2023-03-31T02:14:32.126Z,984.50
2023-03-31T02:15:32.133Z,984.45
2023-03-31T02:16:32.217Z,984.48
2023-03-31T02:17:32.103Z,984.47
2023-03-31T02:18:32.123Z,984.44
2023-03-31T02:19:32.092Z,984.41
2023-03-31T02:20:32.073Z,984.39
2023-03-31T02:21:32.080Z,984.45
2023-03-31T02:22:32.054Z,984.41
2023-03-31T02:23:32.073Z,984.43
2023-03-31T02:24:32.041Z,984.47
2023-03-31T02:25:32.035Z,984.41
2023-03-31T02:26:32.029Z,984.43
2023-03-31T02:27:32.049Z,984.43
2023-03-31T02:28:32.065Z,984.38
2023-03-31T02:29:32.002Z,984.44
2023-03-31T02:30:32.001Z,984.40
2023-03-31T02:31:32.009Z,984.40
2023-03-31T02:32:32.028Z,984.40
2023-03-31T02:33:32.003Z,984.36
2023-03-31T02:34:31.983Z,984.34
2023-03-31T02:35:31.983Z,984.36
2023-03-31T02:36:31.946Z,984.30
2023-03-31T02:37:31.962Z,984.30
2023-03-31T02:38:31.959Z,984.29
2023-03-31T02:39:31.919Z,984.29
2023-03-31T02:40:31.911Z,984.23
2023-03-31T02:41:32.907Z,984.28
2023-03-31T02:42:31.931Z,984.21
2023-03-31T02:43:31.916Z,984.12
2023-03-31T02:44:31.888Z,984.14
2023-03-31T02:45:31.931Z,984.13
2023-03-31T02:46:32.108Z,984.02
2023-03-31T02:47:31.926Z,984.03
2023-03-31T02:48:31.895Z,984.03
2023-03-31T02:49:31.835Z,983.94
2023-03-31T02:50:34.298Z,983.84
2023-03-31T02:51:31.828Z,983.80
2023-03-31T02:52:31.817Z,983.82
2023-03-31T02:53:31.846Z,983.80
2023-03-31T02:54:31.810Z,983.80
2023-03-31T02:55:31.799Z,983.88
2023-03-31T02:56:31.784Z,983.86
2023-03-31T02:57:31.791Z,983.93
2023-03-31T02:58:31.812Z,983.88
2023-03-31T02:59:31.769Z,983.87
2023-03-31T03:00:31.756Z,983.76
2023-03-31T03:01:31.818Z,983.85
2023-03-31T03:02:31.839Z,983.74
2023-03-31T03:03:31.770Z,983.78
2023-03-31T03:04:31.760Z,983.75
2023-03-31T03:05:31.728Z,983.73
2023-03-31T03:06:31.717Z,983.72
2023-03-31T03:07:31.713Z,983.66
2023-03-31T03:08:31.705Z,983.63
2023-03-31T03:09:31.736Z,983.66
2023-03-31T03:10:31.724Z,983.60
2023-03-31T03:11:31.701Z,983.63
2023-03-31T03:12:31.697Z,983.57
2023-03-31T03:13:31.665Z,983.58
2023-03-31T03:14:31.692Z,983.55
2023-03-31T03:15:31.654Z,983.55
2023-03-31T03:16:31.678Z,983.59
2023-03-31T03:17:31.652Z,983.58
2023-03-31T03:18:31.631Z,983.52
2023-03-31T03:19:31.647Z,983.47
2023-03-31T03:20:31.615Z,983.47
2023-03-31T03:21:31.625Z,983.43
2023-03-31T03:22:31.659Z,983.45
2023-03-31T03:23:31.587Z,983.49
2023-03-31T03:24:31.615Z,983.41
2023-03-31T03:25:31.582Z,983.43
2023-03-31T03:26:31.559Z,983.44
2023-03-31T03:27:31.556Z,983.38
2023-03-31T03:28:31.560Z,983.36
2023-03-31T03:29:31.569Z,983.29
2023-03-31T03:30:31.613Z,983.29
2023-03-31T03:31:31.535Z,983.34
2023-03-31T03:32:31.560Z,983.28
2023-03-31T03:33:31.530Z,983.25
2023-03-31T03:34:31.538Z,983.21
2023-03-31T03:35:31.507Z,983.27
2023-03-31T03:36:31.492Z,983.20
2023-03-31T03:37:31.477Z,983.19
2023-03-31T03:38:31.477Z,983.15
2023-03-31T03:39:31.519Z,983.16
2023-03-31T03:40:31.459Z,983.07
2023-03-31T03:41:31.451Z,983.03
2023-03-31T03:42:31.456Z,983.00
2023-03-31T03:43:31.458Z,982.95
2023-03-31T03:44:31.475Z,983.02
2023-03-31T03:45:31.407Z,983.01
2023-03-31T03:46:32.462Z,983.02
2023-03-31T03:47:31.433Z,983.02
2023-03-31T03:48:31.400Z,982.96
2023-03-31T03:49:31.415Z,982.89
2023-03-31T03:50:31.398Z,982.85
2023-03-31T03:51:31.377Z,982.85
2023-03-31T03:52:31.365Z,982.87
2023-03-31T03:53:31.385Z,982.86
2023-03-31T03:54:31.382Z,982.84
2023-03-31T03:55:31.348Z,982.80
2023-03-31T03:56:31.349Z,982.76
2023-03-31T03:57:31.371Z,982.78
2023-03-31T03:58:31.315Z,982.80
2023-03-31T03:59:31.340Z,982.76
2023-03-31T04:00:31.331Z,982.67
2023-03-31T04:01:31.315Z,982.66
2023-03-31T04:02:31.343Z,982.64
2023-03-31T04:03:31.281Z,982.54
2023-03-31T04:04:31.369Z,982.57
2023-03-31T04:05:31.320Z,982.54
2023-03-31T04:06:31.257Z,982.48
2023-03-31T04:07:31.249Z,982.47
2023-03-31T04:08:31.250Z,982.46
2023-03-31T04:09:31.244Z,982.37
2023-03-31T04:10:31.259Z,982.38
2023-03-31T04:11:31.228Z,982.35
2023-03-31T04:12:31.232Z,982.33
2023-03-31T04:13:31.210Z,982.17
2023-03-31T04:14:31.195Z,982.06
2023-03-31T04:15:31.212Z,982.06
2023-03-31T04:16:31.214Z,981.97
2023-03-31T04:17:31.211Z,981.91
2023-03-31T04:18:31.162Z,981.92
2023-03-31T04:19:31.162Z,981.85
2023-03-31T04:20:31.179Z,981.86
2023-03-31T04:21:31.179Z,981.73
2023-03-31T04:22:31.132Z,981.77
2023-03-31T04:23:31.125Z,981.81
2023-03-31T04:24:31.123Z,981.71
2023-03-31T04:25:31.130Z,981.68
2023-03-31T04:26:31.137Z,981.65
2023-03-31T04:27:31.113Z,981.59
2023-03-31T04:28:31.091Z,981.55
2023-03-31T04:29:31.082Z,981.58
2023-03-31T04:30:31.245Z,981.61
2023-03-31T04:31:31.160Z,981.55
2023-03-31T04:34:06.085Z,981.57
2023-03-31T04:35:06.094Z,981.60
2023-03-31T04:36:06.364Z,981.58
2023-03-31T04:37:06.071Z,981.53
2023-03-31T04:38:06.093Z,981.59
2023-03-31T04:39:06.065Z,981.58
2023-03-31T04:40:06.044Z,981.62
2023-03-31T04:41:06.032Z,981.70
2023-03-31T04:42:06.035Z,981.76
2023-03-31T04:43:07.157Z,981.74
2023-03-31T04:44:07.149Z,981.80
2023-03-31T04:45:07.174Z,981.88
2023-03-31T04:46:07.261Z,981.83
2023-03-31T04:47:07.172Z,981.84
2023-03-31T04:48:07.140Z,981.83
2023-03-31T04:49:07.109Z,981.85
2023-03-31T04:50:07.107Z,981.84
2023-03-31T04:51:07.122Z,981.84
2023-03-31T04:52:07.088Z,981.87
2023-03-31T04:53:07.100Z,981.78
2023-03-31T04:54:07.074Z,981.86
2023-03-31T04:55:07.059Z,981.85
2023-03-31T04:56:07.146Z,981.80
2023-03-31T04:57:07.075Z,981.79
2023-03-31T04:58:07.036Z,981.75
2023-03-31T04:59:07.033Z,981.69
2023-03-31T05:00:07.038Z,981.69
2023-03-31T05:01:07.063Z,981.63
2023-03-31T05:02:07.038Z,981.60
2023-03-31T05:03:07.124Z,981.62
2023-03-31T05:04:06.992Z,981.54
2023-03-31T05:05:06.986Z,981.54
2023-03-31T05:06:07.271Z,981.49
2023-03-31T05:07:06.975Z,981.48
2023-03-31T05:08:06.975Z,981.35
2023-03-31T05:09:06.957Z,981.24
2023-03-31T05:10:06.953Z,981.19
2023-03-31T05:11:06.968Z,981.09
2023-03-31T05:12:06.934Z,981.07
2023-03-31T05:13:06.925Z,981.07
2023-03-31T05:14:06.920Z,980.99
2023-03-31T05:15:06.907Z,980.92
2023-03-31T05:16:07.112Z,981.01
2023-03-31T05:17:06.900Z,981.08
2023-03-31T05:18:06.943Z,981.08
2023-03-31T05:19:06.891Z,981.01
2023-03-31T05:20:06.915Z,981.07
2023-03-31T05:21:06.893Z,981.02
2023-03-31T05:22:06.883Z,981.16
2023-03-31T05:23:06.919Z,981.21
2023-03-31T05:24:06.841Z,981.14
2023-03-31T05:25:06.858Z,981.17
2023-03-31T05:26:07.018Z,981.16
2023-03-31T05:27:06.832Z,981.13
2023-03-31T05:28:06.817Z,981.08
2023-03-31T05:29:06.803Z,981.04
2023-03-31T05:30:06.846Z,981.00
2023-03-31T05:31:06.824Z,980.99
2023-03-31T05:32:06.798Z,981.03
2023-03-31T05:33:06.831Z,980.98
2023-03-31T05:34:06.769Z,981.01
2023-03-31T05:35:06.767Z,980.98
2023-03-31T05:36:06.937Z,981.00
2023-03-31T05:37:06.746Z,981.09
2023-03-31T05:38:06.749Z,981.04
2023-03-31T05:39:06.730Z,981.05
2023-03-31T05:40:06.728Z,980.96
2023-03-31T05:41:06.738Z,980.96
2023-03-31T05:42:06.705Z,980.96
2023-03-31T05:43:06.697Z,980.98
2023-03-31T05:44:06.691Z,980.94
2023-03-31T05:45:09.017Z,980.85
2023-03-31T05:46:08.400Z,980.97
2023-03-31T05:47:06.669Z,980.90
2023-03-31T05:48:06.696Z,980.91
2023-03-31T05:49:06.649Z,980.91
2023-03-31T05:50:06.639Z,980.77
2023-03-31T05:51:06.667Z,980.80
2023-03-31T05:52:06.637Z,980.80
2023-03-31T05:53:06.645Z,980.76
2023-03-31T05:54:06.686Z,980.64
2023-03-31T05:55:06.605Z,980.70
2023-03-31T05:56:06.868Z,980.68
2023-03-31T05:57:06.633Z,980.76
2023-03-31T05:58:06.585Z,980.74
2023-03-31T05:59:06.572Z,980.77
2023-03-31T06:00:06.620Z,980.69
2023-03-31T06:01:06.977Z,980.60
2023-03-31T06:02:06.610Z,980.62
2023-03-31T06:03:06.724Z,980.65
2023-03-31T06:04:06.555Z,980.68
2023-03-31T06:05:06.526Z,980.64
2023-03-31T06:06:06.607Z,980.50
2023-03-31T06:07:06.518Z,980.44
2023-03-31T06:08:06.500Z,980.53
2023-03-31T06:09:06.515Z,980.48
2023-03-31T06:10:06.492Z,980.43
2023-03-31T06:11:06.879Z,980.37
2023-03-31T06:12:06.468Z,980.33
2023-03-31T06:13:06.461Z,980.38
2023-03-31T06:14:06.452Z,980.30
2023-03-31T06:15:06.497Z,980.41
2023-03-31T06:16:07.414Z,980.44
2023-03-31T06:17:07.291Z,980.46
2023-03-31T06:18:06.448Z,980.49
2023-03-31T06:19:06.488Z,980.52
2023-03-31T06:20:16.353Z,980.40
2023-03-31T06:21:08.667Z,980.41
2023-03-31T06:22:06.475Z,980.39
2023-03-31T06:23:06.476Z,980.31
2023-03-31T06:24:06.372Z,980.39
2023-03-31T06:25:06.386Z,980.32
2023-03-31T06:26:06.379Z,980.34
2023-03-31T06:27:06.355Z,980.35
2023-03-31T06:28:06.341Z,980.28
2023-03-31T06:29:06.382Z,980.31
2023-03-31T06:30:06.323Z,980.29
2023-03-31T06:31:06.542Z,980.30
2023-03-31T06:32:06.720Z,980.35
2023-03-31T06:33:06.359Z,980.31
2023-03-31T06:34:06.288Z,980.29
2023-03-31T06:35:06.304Z,980.24
2023-03-31T06:36:06.324Z,980.25
2023-03-31T06:37:06.266Z,980.34
2023-03-31T06:38:06.259Z,980.24
2023-03-31T06:39:06.260Z,980.30
2023-03-31T06:40:06.245Z,980.33
2023-03-31T06:41:06.385Z,980.23
2023-03-31T06:42:06.252Z,980.27
2023-03-31T06:43:06.235Z,980.34
2023-03-31T06:44:06.233Z,980.32
2023-03-31T06:45:06.212Z,980.28
2023-03-31T06:46:06.437Z,980.26
2023-03-31T06:47:06.223Z,980.23
2023-03-31T06:48:06.229Z,980.23
2023-03-31T06:49:06.225Z,980.25
2023-03-31T06:50:06.169Z,980.22
2023-03-31T06:51:06.173Z,980.29
2023-03-31T06:52:06.182Z,980.30
2023-03-31T06:53:06.169Z,980.32
2023-03-31T06:54:06.147Z,980.29
2023-03-31T06:55:06.159Z,980.30
2023-03-31T06:56:06.329Z,980.25
2023-03-31T06:57:06.167Z,980.27
2023-03-31T06:58:06.111Z,980.28
2023-03-31T06:59:06.137Z,980.27
2023-03-31T07:00:06.107Z,980.23
2023-03-31T07:01:06.579Z,980.23
2023-03-31T07:02:06.159Z,980.24
2023-03-31T07:03:06.143Z,980.17
2023-03-31T07:04:06.093Z,980.17
2023-03-31T07:05:06.063Z,980.09
2023-03-31T07:06:06.051Z,980.05
2023-03-31T07:07:06.078Z,980.04
2023-03-31T07:08:06.035Z,980.04
2023-03-31T07:09:06.024Z,980.05
2023-03-31T07:10:06.019Z,979.92
2023-03-31T07:11:06.312Z,979.98
2023-03-31T07:12:06.029Z,980.04
2023-03-31T07:13:06.208Z,979.99
2023-03-31T07:14:05.991Z,979.94
2023-03-31T07:15:06.841Z,979.93
2023-03-31T07:16:07.165Z,979.98
2023-03-31T07:17:06.078Z,979.99
2023-03-31T07:18:06.008Z,980.04
2023-03-31T07:19:05.963Z,979.88
2023-03-31T07:20:05.961Z,979.93
2023-03-31T07:21:09.073Z,979.95
2023-03-31T07:22:06.957Z,979.88
2023-03-31T07:23:05.924Z,979.87
2023-03-31T07:24:05.916Z,979.90
2023-03-31T07:25:05.908Z,979.78
2023-03-31T07:26:05.899Z,979.79
2023-03-31T07:27:05.922Z,979.76
2023-03-31T07:28:05.889Z,979.72
2023-03-31T07:29:05.903Z,979.72
2023-03-31T07:30:05.871Z,979.68
2023-03-31T07:31:05.964Z,979.69
2023-03-31T07:32:05.915Z,979.62
2023-03-31T07:33:05.899Z,979.66
2023-03-31T07:34:05.840Z,979.62
2023-03-31T07:35:05.831Z,979.59
2023-03-31T07:36:12.845Z,979.62
2023-03-31T07:37:07.845Z,979.56
2023-03-31T07:38:05.821Z,979.55
2023-03-31T07:39:05.800Z,979.49
2023-03-31T07:40:05.806Z,979.52
2023-03-31T07:41:09.651Z,979.50
2023-03-31T07:42:06.807Z,979.49
2023-03-31T07:43:05.780Z,979.41
2023-03-31T07:44:05.778Z,979.47
2023-03-31T07:45:05.768Z,979.48
2023-03-31T07:46:06.356Z,979.47
2023-03-31T07:47:05.769Z,979.45
2023-03-31T07:48:05.754Z,979.45
2023-03-31T07:49:05.739Z,979.46
2023-03-31T07:50:05.737Z,979.52
2023-03-31T07:51:05.972Z,979.48
2023-03-31T07:52:05.730Z,979.45
2023-03-31T07:53:05.691Z,979.54
2023-03-31T07:54:05.688Z,979.49
2023-03-31T07:55:05.677Z,979.54
2023-03-31T07:56:05.901Z,979.49
2023-03-31T07:57:05.755Z,979.47
2023-03-31T07:58:05.666Z,979.50
2023-03-31T07:59:05.660Z,979.44
2023-03-31T08:00:05.661Z,979.42
2023-03-31T08:01:05.878Z,979.45
2023-03-31T08:02:05.715Z,979.43
2023-03-31T08:03:05.711Z,979.40
2023-03-31T08:04:05.660Z,979.35
2023-03-31T08:05:05.608Z,979.36
2023-03-31T08:06:05.781Z,979.38
2023-03-31T08:07:05.615Z,979.37
2023-03-31T08:08:05.586Z,979.35
2023-03-31T08:09:05.586Z,979.35
2023-03-31T08:10:05.570Z,979.33
2023-03-31T08:11:05.722Z,979.27
2023-03-31T08:12:05.617Z,979.23
2023-03-31T08:13:05.553Z,979.18
2023-03-31T08:14:05.548Z,979.16
2023-03-31T08:15:05.528Z,979.08
2023-03-31T08:16:05.764Z,979.15
2023-03-31T08:17:05.541Z,979.05
2023-03-31T08:18:05.557Z,979.19
2023-03-31T08:19:05.513Z,979.24
2023-03-31T08:20:07.809Z,979.02
2023-03-31T08:21:06.613Z,979.11
2023-03-31T08:22:05.507Z,979.16
2023-03-31T08:23:05.486Z,979.09
2023-03-31T08:24:05.469Z,979.07
2023-03-31T08:25:05.462Z,979.09
2023-03-31T08:26:05.594Z,979.12
2023-03-31T08:28:06.438Z,978.98
2023-03-31T08:29:05.471Z,979.01
2023-03-31T08:30:05.419Z,979.02
2023-03-31T08:31:05.419Z,979.03
2023-03-31T08:32:05.584Z,979.04
2023-03-31T08:33:05.466Z,979.01
2023-03-31T08:34:05.390Z,978.94
2023-03-31T08:35:05.389Z,978.94
2023-03-31T08:36:05.545Z,978.95
2023-03-31T08:37:05.991Z,978.87
2023-03-31T08:38:06.361Z,978.86
2023-03-31T08:39:05.351Z,978.81
2023-03-31T08:40:05.350Z,978.77
2023-03-31T08:41:05.340Z,978.69
2023-03-31T08:42:05.370Z,978.76
2023-03-31T08:43:05.331Z,978.72
2023-03-31T08:44:05.320Z,978.71
2023-03-31T08:45:05.308Z,978.71
2023-03-31T08:46:05.455Z,978.59
2023-03-31T08:47:05.339Z,978.62
2023-03-31T08:48:07.210Z,978.64
2023-03-31T08:49:06.279Z,978.61
2023-03-31T08:50:05.271Z,978.63
2023-03-31T08:51:05.587Z,978.66
2023-03-31T08:52:06.298Z,978.64
2023-03-31T08:53:05.250Z,978.56
2023-03-31T08:54:05.241Z,978.58
2023-03-31T08:55:05.239Z,978.54
2023-03-31T08:56:05.374Z,978.44
2023-03-31T08:57:05.256Z,978.44
2023-03-31T08:58:05.207Z,978.38
2023-03-31T08:59:05.238Z,978.41
2023-03-31T09:00:05.194Z,978.32
2023-03-31T09:01:05.446Z,978.29
2023-03-31T09:02:05.264Z,978.20
2023-03-31T09:03:07.325Z,978.15
2023-03-31T09:04:07.153Z,978.07
2023-03-31T09:05:06.156Z,978.10
2023-03-31T09:06:05.158Z,978.10
2023-03-31T09:07:05.143Z,978.06
2023-03-31T09:08:05.155Z,978.12
2023-03-31T09:09:05.125Z,978.09
2023-03-31T09:10:05.133Z,978.03
2023-03-31T09:11:05.109Z,978.07
2023-03-31T09:12:05.107Z,978.05
2023-03-31T09:13:05.165Z,978.06
2023-03-31T09:14:05.152Z,977.91
2023-03-31T09:15:05.204Z,977.87
2023-03-31T09:16:05.477Z,977.97
2023-03-31T09:17:05.112Z,977.88
2023-03-31T09:18:05.094Z,977.95
2023-03-31T09:19:05.046Z,977.94
2023-03-31T09:20:05.043Z,977.99
2023-03-31T09:21:05.248Z,977.91
2023-03-31T09:22:05.020Z,977.87
2023-03-31T09:23:05.057Z,977.95
2023-03-31T09:24:05.067Z,977.91
2023-03-31T09:25:05.010Z,977.92
2023-03-31T09:26:05.204Z,977.95
2023-03-31T09:27:04.996Z,977.89
2023-03-31T09:28:05.010Z,977.87
2023-03-31T09:29:04.989Z,977.88
2023-03-31T09:30:04.968Z,977.88
2023-03-31T09:31:05.004Z,977.80
2023-03-31T09:32:04.953Z,977.89
2023-03-31T09:33:05.008Z,977.83
2023-03-31T09:34:04.944Z,977.89
2023-03-31T09:35:04.934Z,977.80
2023-03-31T09:36:05.032Z,977.80
2023-03-31T09:37:04.913Z,977.80
2023-03-31T09:38:04.931Z,977.77
2023-03-31T09:39:04.895Z,977.71
2023-03-31T09:40:04.894Z,977.77
2023-03-31T09:41:04.886Z,977.79
2023-03-31T09:42:04.878Z,977.74
2023-03-31T09:43:04.890Z,977.74
2023-03-31T09:44:04.867Z,977.74
2023-03-31T09:45:04.851Z,977.73
2023-03-31T09:46:14.597Z,977.73
2023-03-31T09:47:08.970Z,977.66
2023-03-31T09:48:04.887Z,977.65
2023-03-31T09:49:04.821Z,977.64
2023-03-31T09:50:04.826Z,977.57
2023-03-31T09:51:04.879Z,977.55
2023-03-31T09:52:04.795Z,977.55
2023-03-31T09:53:04.822Z,977.53
2023-03-31T09:54:04.811Z,977.55
2023-03-31T09:55:04.781Z,977.50
2023-03-31T09:56:05.088Z,977.43
2023-03-31T09:57:04.782Z,977.41
2023-03-31T09:58:04.785Z,977.36
2023-03-31T09:59:04.750Z,977.38
2023-03-31T10:00:04.739Z,977.37
2023-03-31T10:01:05.154Z,977.33
2023-03-31T10:02:04.832Z,977.29
2023-03-31T10:03:04.765Z,977.24
2023-03-31T10:04:04.718Z,977.30
2023-03-31T10:05:04.694Z,977.33
2023-03-31T10:06:04.700Z,977.31
2023-03-31T10:07:04.689Z,977.16
2023-03-31T10:08:04.710Z,977.33
2023-03-31T10:09:04.675Z,977.28
2023-03-31T10:10:04.659Z,977.18
2023-03-31T10:11:04.809Z,977.24
2023-03-31T10:12:04.659Z,977.22
2023-03-31T10:13:04.682Z,977.22
2023-03-31T10:14:04.650Z,977.23
2023-03-31T10:15:04.670Z,977.18
2023-03-31T10:16:04.828Z,977.19
2023-03-31T10:17:04.618Z,977.15
2023-03-31T10:18:04.630Z,977.18
2023-03-31T10:19:04.652Z,977.24
2023-03-31T10:20:04.584Z,977.24
2023-03-31T10:21:04.797Z,977.29
2023-03-31T10:22:04.573Z,977.24
2023-03-31T10:23:05.330Z,977.29
2023-03-31T10:24:04.578Z,977.23
2023-03-31T10:25:04.555Z,977.20
2023-03-31T10:26:04.540Z,977.19
2023-03-31T10:27:04.539Z,977.15
2023-03-31T10:28:04.529Z,977.12
2023-03-31T10:29:04.550Z,977.14
2023-03-31T10:30:04.509Z,977.14
2023-03-31T10:31:04.647Z,977.11
2023-03-31T10:32:04.502Z,977.07
2023-03-31T10:33:36.454Z,977.05
2023-03-31T10:34:04.476Z,977.08
2023-03-31T10:35:04.464Z,977.14
2023-03-31T10:36:04.494Z,977.16
2023-03-31T10:37:04.454Z,977.07
2023-03-31T10:38:06.065Z,977.10
2023-03-31T10:39:05.466Z,977.02
2023-03-31T10:40:04.429Z,977.06
2023-03-31T10:41:04.734Z,977.01
2023-03-31T10:42:04.412Z,977.03
2023-03-31T10:43:04.421Z,977.06
2023-03-31T10:44:04.431Z,977.01
2023-03-31T10:45:04.395Z,977.05
2023-03-31T10:46:04.404Z,977.10
2023-03-31T10:47:04.486Z,977.01
2023-03-31T10:48:04.455Z,976.91
2023-03-31T10:49:04.394Z,976.94
2023-03-31T10:50:04.356Z,976.87
2023-03-31T10:51:04.567Z,976.82
2023-03-31T10:52:04.443Z,976.75
2023-03-31T10:53:04.328Z,976.77
2023-03-31T10:54:04.359Z,976.81
2023-03-31T10:55:04.323Z,976.78
2023-03-31T10:56:04.304Z,976.77
2023-03-31T10:57:04.310Z,976.74
2023-03-31T10:58:04.291Z,976.79
2023-03-31T10:59:06.353Z,976.80
2023-03-31T11:00:05.269Z,976.70
2023-03-31T11:01:04.438Z,976.73
2023-03-31T11:02:04.276Z,976.63
2023-03-31T11:03:04.301Z,976.65
2023-03-31T11:04:04.373Z,976.63
2023-03-31T11:05:04.231Z,976.63
2023-03-31T11:06:04.228Z,976.60
2023-03-31T11:07:04.221Z,976.57
2023-03-31T11:08:04.216Z,976.56
2023-03-31T11:09:04.244Z,976.54
2023-03-31T11:10:04.205Z,976.57
2023-03-31T11:11:04.322Z,976.42
2023-03-31T11:12:04.184Z,976.45
2023-03-31T11:13:04.209Z,976.55
2023-03-31T11:14:04.193Z,976.55
2023-03-31T11:15:04.160Z,976.63
2023-03-31T11:16:04.227Z,976.65
2023-03-31T11:17:04.206Z,976.66
2023-03-31T11:18:04.228Z,976.72
2023-03-31T11:19:04.158Z,976.72
2023-03-31T11:20:04.114Z,976.70
2023-03-31T11:21:04.219Z,976.69
2023-03-31T11:22:04.103Z,976.65
2023-03-31T11:23:04.085Z,976.61
2023-03-31T11:24:04.130Z,976.71
2023-03-31T11:25:04.082Z,976.53
2023-03-31T11:26:04.095Z,976.54
2023-03-31T11:27:04.063Z,976.58
2023-03-31T11:28:04.066Z,976.65
2023-03-31T11:29:04.088Z,976.60
2023-03-31T11:30:04.043Z,976.62
2023-03-31T11:31:04.334Z,976.61
2023-03-31T11:32:04.089Z,976.61
2023-03-31T11:33:04.071Z,976.64
2023-03-31T11:34:04.050Z,976.67
2023-03-31T11:35:04.008Z,976.58
2023-03-31T11:36:04.043Z,976.64
2023-03-31T11:37:03.990Z,976.53
2023-03-31T11:38:04.003Z,976.51
2023-03-31T11:39:04.012Z,976.43
2023-03-31T11:40:04.021Z,976.50
2023-03-31T11:41:04.103Z,976.45
2023-03-31T11:42:05.168Z,976.43
2023-03-31T11:43:03.947Z,976.38
2023-03-31T11:44:03.959Z,976.46
2023-03-31T11:45:03.961Z,976.36
2023-03-31T11:46:04.233Z,976.45
2023-03-31T11:47:03.920Z,976.43
2023-03-31T11:48:06.175Z,976.47
2023-03-31T11:49:03.921Z,976.39
2023-03-31T11:50:03.991Z,976.48
2023-03-31T11:51:03.882Z,976.43
2023-03-31T11:52:03.873Z,976.34
2023-03-31T11:53:03.878Z,976.40
2023-03-31T11:54:03.861Z,976.48
2023-03-31T11:55:03.881Z,976.43
2023-03-31T11:56:04.068Z,976.51
2023-03-31T11:57:03.847Z,976.42
2023-03-31T11:58:03.846Z,976.32
2023-03-31T11:59:03.849Z,976.45
2023-03-31T12:00:03.852Z,976.44
2023-03-31T12:01:03.803Z,976.35
2023-03-31T12:02:03.811Z,976.34
2023-03-31T12:03:03.891Z,976.29
2023-03-31T12:04:03.812Z,976.38
2023-03-31T12:05:03.803Z,976.35
2023-03-31T12:06:03.897Z,976.33
2023-03-31T12:07:03.796Z,976.43
2023-03-31T12:08:03.749Z,976.46
2023-03-31T12:09:03.766Z,976.51
2023-03-31T12:10:03.767Z,976.53
2023-03-31T12:11:03.730Z,976.48
2023-03-31T12:12:03.741Z,976.49
2023-03-31T12:13:03.732Z,976.55
2023-03-31T12:14:03.751Z,976.60
2023-03-31T12:15:03.725Z,976.61
2023-03-31T12:16:03.751Z,976.54
2023-03-31T12:17:03.707Z,976.56
2023-03-31T12:18:03.730Z,976.64
2023-03-31T12:19:03.764Z,976.66
2023-03-31T12:20:03.704Z,976.56
2023-03-31T12:21:03.666Z,976.61
2023-03-31T12:22:03.676Z,976.62
2023-03-31T12:23:03.642Z,976.63
2023-03-31T12:24:03.625Z,976.65
2023-03-31T12:25:03.638Z,976.63
2023-03-31T12:26:03.734Z,976.76
2023-03-31T12:27:03.603Z,976.75
2023-03-31T12:28:03.589Z,976.63
2023-03-31T12:29:03.628Z,976.76
2023-03-31T12:30:03.610Z,976.77
2023-03-31T12:31:03.639Z,976.81